Airfield :
LOGIN :

Register | Disclaimer

   EN    FR    IT 

 










Legend :    VFR   Marginal VFR   IFR   Intensive IFR   Very Intensive IFR
Visi :
Ceiling :
>= 8 km
>= 3000ft
5 to 8 km
1000 to 3000 ft
1500m to 5 km
500 to 1000 ft
800 to 1500m
200 to 500 ft
< 800m
< 200 ft
Symbols :   Thunderstorms  Fog  Heavy snow  Heavy precipitations  Wind > 20 kt
SIGMETs :     Misc.  Thunderstorms  Icing  Turbulence  Mountain Waves  Volcanic Ashes






- Airport Elevation : 458 ft


LFSI - St-Dizier

CURRENT METAR :
  • 241300Z AUTO 21010KT 9999 SCT029 SCT034 BKN130 04/M02 Q1002

EXPIRED METARs :
  • 241230Z AUTO 21011KT 9999 BKN030 BKN160 BKN190 04/M01 Q1003
  • 241200Z AUTO 19006KT 170V230 CAVOK 04/00 Q1003
  • 241130Z AUTO 20007KT 9999 FEW018 03/M00 Q1003
  • 241100Z AUTO 20007KT 170V240 9999 SCT036 04/00 Q1004
  • 241030Z AUTO 22007KT 9999 OVC037 02/M01 Q1004

TAF TAF LFSI
Valid from the 24 at 09:00 until the 25 at 09:00 UTC


240800Z 2409/2509 22008KT 9999 SCT006 BKN035
BECMG 2410/2412 BKN013
TEMPO 2415/2506 4000 RASN BKN010



MET'MAP, your aeronautical weather chart ! - Copyright ORBIFLY December 2007 - Disclaimer

ORBIFLY MET'MAP TEAM :

Programming & Development : Alexandra Zaïnal
Concept & original design : Baudouin d'Aumeries
Assistance for programming : Marc-Olivier Méhu
Technical & hardware support : Manuel Goepfert

Contact : metmap@orbifly.com




SOURCES & CREDITS :

   NOAA